sensor_id;sensor_type;location;lat;lon;timestamp;P1;durP1;ratioP1;P2;durP2;ratioP2
27209;SDS011;14721;42.668;23.386;2024-02-28T00:02:13;48.73;;;19.47;;
27209;SDS011;14721;42.668;23.386;2024-02-28T00:04:39;36.87;;;16.40;;
27209;SDS011;14721;42.668;23.386;2024-02-28T00:07:06;38.23;;;15.83;;
27209;SDS011;14721;42.668;23.386;2024-02-28T00:09:32;29.83;;;13.47;;
27209;SDS011;14721;42.668;23.386;2024-02-28T00:11:57;26.23;;;11.30;;
27209;SDS011;14721;42.668;23.386;2024-02-28T00:14:26;25.00;;;11.63;;
27209;SDS011;14721;42.668;23.386;2024-02-28T00:16:52;29.83;;;11.43;;
27209;SDS011;14721;42.668;23.386;2024-02-28T00:19:17;34.20;;;11.17;;
27209;SDS011;14721;42.668;23.386;2024-02-28T00:21:45;23.80;;;11.73;;
27209;SDS011;14721;42.668;23.386;2024-02-28T00:24:10;29.73;;;10.20;;
27209;SDS011;14721;42.668;23.386;2024-02-28T00:26:37;23.03;;;9.10;;
27209;SDS011;14721;42.668;23.386;2024-02-28T00:29:07;25.13;;;10.87;;
27209;SDS011;14721;42.668;23.386;2024-02-28T00:31:32;20.93;;;10.83;;
27209;SDS011;14721;42.668;23.386;2024-02-28T00:33:58;23.07;;;10.00;;
27209;SDS011;14721;42.668;23.386;2024-02-28T00:36:23;23.83;;;10.10;;
27209;SDS011;14721;42.668;23.386;2024-02-28T00:38:50;21.10;;;10.37;;
27209;SDS011;14721;42.668;23.386;2024-02-28T00:41:15;23.57;;;10.70;;
27209;SDS011;14721;42.668;23.386;2024-02-28T00:43:41;22.30;;;10.20;;
27209;SDS011;14721;42.668;23.386;2024-02-28T00:46:07;21.60;;;10.60;;
27209;SDS011;14721;42.668;23.386;2024-02-28T00:48:39;25.07;;;10.97;;
27209;SDS011;14721;42.668;23.386;2024-02-28T00:51:04;23.50;;;9.90;;
27209;SDS011;14721;42.668;23.386;2024-02-28T00:53:30;26.17;;;10.43;;
27209;SDS011;14721;42.668;23.386;2024-02-28T00:55:56;23.47;;;10.23;;
27209;SDS011;14721;42.668;23.386;2024-02-28T00:58:21;21.47;;;9.53;;
27209;SDS011;14721;42.668;23.386;2024-02-28T01:00:47;20.87;;;10.20;;
27209;SDS011;14721;42.668;23.386;2024-02-28T01:03:16;20.20;;;10.37;;
27209;SDS011;14721;42.668;23.386;2024-02-28T01:05:43;19.87;;;10.13;;
27209;SDS011;14721;42.668;23.386;2024-02-28T01:08:09;21.03;;;10.00;;
27209;SDS011;14721;42.668;23.386;2024-02-28T01:10:34;20.17;;;10.83;;
27209;SDS011;14721;42.668;23.386;2024-02-28T01:13:01;29.17;;;10.60;;
27209;SDS011;14721;42.668;23.386;2024-02-28T01:15:27;22.97;;;11.37;;
27209;SDS011;14721;42.668;23.386;2024-02-28T01:17:53;23.00;;;10.83;;
27209;SDS011;14721;42.668;23.386;2024-02-28T01:20:18;23.00;;;10.97;;
27209;SDS011;14721;42.668;23.386;2024-02-28T01:22:44;30.07;;;12.83;;
27209;SDS011;14721;42.668;23.386;2024-02-28T01:25:11;26.90;;;11.97;;
27209;SDS011;14721;42.668;23.386;2024-02-28T01:27:36;30.67;;;12.83;;
27209;SDS011;14721;42.668;23.386;2024-02-28T01:30:05;26.80;;;12.53;;
27209;SDS011;14721;42.668;23.386;2024-02-28T01:32:31;27.77;;;12.50;;
27209;SDS011;14721;42.668;23.386;2024-02-28T01:34:57;29.73;;;12.50;;
27209;SDS011;14721;42.668;23.386;2024-02-28T01:37:23;27.43;;;13.00;;
27209;SDS011;14721;42.668;23.386;2024-02-28T01:39:49;29.37;;;11.97;;
27209;SDS011;14721;42.668;23.386;2024-02-28T01:42:14;29.73;;;12.77;;
27209;SDS011;14721;42.668;23.386;2024-02-28T01:44:44;22.30;;;12.07;;
27209;SDS011;14721;42.668;23.386;2024-02-28T01:47:11;25.77;;;12.00;;
27209;SDS011;14721;42.668;23.386;2024-02-28T01:49:37;25.63;;;12.40;;
27209;SDS011;14721;42.668;23.386;2024-02-28T01:52:03;30.40;;;12.43;;
27209;SDS011;14721;42.668;23.386;2024-02-28T01:54:32;28.77;;;12.67;;
27209;SDS011;14721;42.668;23.386;2024-02-28T01:57:00;28.20;;;12.93;;
27209;SDS011;14721;42.668;23.386;2024-02-28T01:59:28;25.77;;;13.27;;
27209;SDS011;14721;42.668;23.386;2024-02-28T02:01:55;35.30;;;12.43;;
27209;SDS011;14721;42.668;23.386;2024-02-28T02:04:20;27.27;;;12.40;;
27209;SDS011;14721;42.668;23.386;2024-02-28T02:06:46;30.27;;;13.00;;
27209;SDS011;14721;42.668;23.386;2024-02-28T02:09:14;32.63;;;12.90;;
27209;SDS011;14721;42.668;23.386;2024-02-28T02:11:40;34.73;;;13.47;;
27209;SDS011;14721;42.668;23.386;2024-02-28T02:14:10;31.73;;;13.03;;
27209;SDS011;14721;42.668;23.386;2024-02-28T02:16:36;25.43;;;11.23;;
27209;SDS011;14721;42.668;23.386;2024-02-28T02:19:01;25.57;;;12.80;;
27209;SDS011;14721;42.668;23.386;2024-02-28T02:21:30;28.27;;;12.97;;
27209;SDS011;14721;42.668;23.386;2024-02-28T02:24:00;27.07;;;12.13;;
27209;SDS011;14721;42.668;23.386;2024-02-28T02:26:27;33.37;;;13.17;;
27209;SDS011;14721;42.668;23.386;2024-02-28T02:28:52;30.20;;;13.57;;
27209;SDS011;14721;42.668;23.386;2024-02-28T02:31:18;29.67;;;13.50;;
27209;SDS011;14721;42.668;23.386;2024-02-28T02:33:44;28.80;;;12.67;;
27209;SDS011;14721;42.668;23.386;2024-02-28T02:36:13;27.43;;;11.93;;
27209;SDS011;14721;42.668;23.386;2024-02-28T02:38:39;29.70;;;13.47;;
27209;SDS011;14721;42.668;23.386;2024-02-28T02:41:04;32.60;;;12.83;;
27209;SDS011;14721;42.668;23.386;2024-02-28T02:43:30;35.43;;;14.27;;
27209;SDS011;14721;42.668;23.386;2024-02-28T02:45:59;31.43;;;13.63;;
27209;SDS011;14721;42.668;23.386;2024-02-28T02:48:24;30.30;;;13.00;;
27209;SDS011;14721;42.668;23.386;2024-02-28T02:50:52;29.27;;;13.03;;
27209;SDS011;14721;42.668;23.386;2024-02-28T02:53:18;34.40;;;13.10;;
27209;SDS011;14721;42.668;23.386;2024-02-28T02:55:45;29.70;;;12.10;;
27209;SDS011;14721;42.668;23.386;2024-02-28T02:58:11;30.40;;;13.53;;
27209;SDS011;14721;42.668;23.386;2024-02-28T03:00:36;26.57;;;12.80;;
27209;SDS011;14721;42.668;23.386;2024-02-28T03:03:02;32.10;;;12.90;;
27209;SDS011;14721;42.668;23.386;2024-02-28T03:05:28;31.43;;;13.37;;
27209;SDS011;14721;42.668;23.386;2024-02-28T03:07:54;32.40;;;13.47;;
27209;SDS011;14721;42.668;23.386;2024-02-28T03:10:20;27.87;;;12.70;;
27209;SDS011;14721;42.668;23.386;2024-02-28T03:12:48;25.27;;;12.63;;
27209;SDS011;14721;42.668;23.386;2024-02-28T03:15:13;35.73;;;13.93;;
27209;SDS011;14721;42.668;23.386;2024-02-28T03:17:39;25.17;;;13.03;;
27209;SDS011;14721;42.668;23.386;2024-02-28T03:20:05;29.37;;;14.10;;
27209;SDS011;14721;42.668;23.386;2024-02-28T03:22:32;27.47;;;13.53;;
27209;SDS011;14721;42.668;23.386;2024-02-28T03:24:58;35.17;;;12.67;;
27209;SDS011;14721;42.668;23.386;2024-02-28T03:27:24;33.43;;;14.40;;
27209;SDS011;14721;42.668;23.386;2024-02-28T03:29:51;29.60;;;12.73;;
27209;SDS011;14721;42.668;23.386;2024-02-28T03:32:16;33.73;;;13.23;;
27209;SDS011;14721;42.668;23.386;2024-02-28T03:34:42;36.90;;;13.17;;
27209;SDS011;14721;42.668;23.386;2024-02-28T03:37:08;28.47;;;12.73;;
27209;SDS011;14721;42.668;23.386;2024-02-28T03:39:34;24.63;;;11.23;;
27209;SDS011;14721;42.668;23.386;2024-02-28T03:42:00;31.90;;;13.47;;
27209;SDS011;14721;42.668;23.386;2024-02-28T03:44:26;31.80;;;13.43;;
27209;SDS011;14721;42.668;23.386;2024-02-28T03:46:55;31.63;;;12.97;;
27209;SDS011;14721;42.668;23.386;2024-02-28T03:49:26;32.20;;;13.37;;
27209;SDS011;14721;42.668;23.386;2024-02-28T03:51:51;31.57;;;12.57;;
27209;SDS011;14721;42.668;23.386;2024-02-28T03:54:17;38.70;;;14.00;;
27209;SDS011;14721;42.668;23.386;2024-02-28T03:56:42;31.57;;;13.23;;
27209;SDS011;14721;42.668;23.386;2024-02-28T03:59:08;30.50;;;13.00;;
27209;SDS011;14721;42.668;23.386;2024-02-28T04:01:36;32.50;;;13.97;;
27209;SDS011;14721;42.668;23.386;2024-02-28T04:04:01;35.60;;;15.90;;
27209;SDS011;14721;42.668;23.386;2024-02-28T04:06:28;31.83;;;14.47;;
27209;SDS011;14721;42.668;23.386;2024-02-28T04:08:54;26.23;;;13.13;;
27209;SDS011;14721;42.668;23.386;2024-02-28T04:11:20;27.57;;;13.23;;
27209;SDS011;14721;42.668;23.386;2024-02-28T04:13:45;30.97;;;13.60;;
27209;SDS011;14721;42.668;23.386;2024-02-28T04:16:12;28.07;;;13.87;;
27209;SDS011;14721;42.668;23.386;2024-02-28T04:18:37;26.43;;;12.97;;
27209;SDS011;14721;42.668;23.386;2024-02-28T04:21:03;36.67;;;12.67;;
27209;SDS011;14721;42.668;23.386;2024-02-28T04:23:32;30.83;;;13.57;;
27209;SDS011;14721;42.668;23.386;2024-02-28T04:25:57;30.80;;;12.57;;
27209;SDS011;14721;42.668;23.386;2024-02-28T04:28:22;35.97;;;14.23;;
27209;SDS011;14721;42.668;23.386;2024-02-28T04:30:48;32.27;;;14.60;;
27209;SDS011;14721;42.668;23.386;2024-02-28T04:33:14;32.73;;;14.27;;
27209;SDS011;14721;42.668;23.386;2024-02-28T04:35:40;29.10;;;13.23;;
27209;SDS011;14721;42.668;23.386;2024-02-28T04:38:14;29.60;;;12.67;;
27209;SDS011;14721;42.668;23.386;2024-02-28T04:40:57;33.10;;;13.57;;
27209;SDS011;14721;42.668;23.386;2024-02-28T04:47:01;34.10;;;12.97;;
27209;SDS011;14721;42.668;23.386;2024-02-28T04:49:45;29.23;;;14.13;;
27209;SDS011;14721;42.668;23.386;2024-02-28T04:55:35;39.67;;;16.00;;
27209;SDS011;14721;42.668;23.386;2024-02-28T04:58:01;31.07;;;14.27;;
27209;SDS011;14721;42.668;23.386;2024-02-28T05:00:27;30.30;;;14.07;;
27209;SDS011;14721;42.668;23.386;2024-02-28T05:02:52;34.20;;;13.93;;
27209;SDS011;14721;42.668;23.386;2024-02-28T05:05:18;30.83;;;13.87;;
27209;SDS011;14721;42.668;23.386;2024-02-28T05:07:43;35.23;;;14.10;;
27209;SDS011;14721;42.668;23.386;2024-02-28T05:10:09;33.03;;;13.43;;
27209;SDS011;14721;42.668;23.386;2024-02-28T05:12:34;32.17;;;15.07;;
27209;SDS011;14721;42.668;23.386;2024-02-28T05:15:00;28.30;;;13.20;;
27209;SDS011;14721;42.668;23.386;2024-02-28T05:17:25;39.67;;;16.70;;
27209;SDS011;14721;42.668;23.386;2024-02-28T05:19:51;34.17;;;13.63;;
27209;SDS011;14721;42.668;23.386;2024-02-28T05:22:16;29.60;;;14.17;;
27209;SDS011;14721;42.668;23.386;2024-02-28T05:24:42;36.20;;;14.73;;
27209;SDS011;14721;42.668;23.386;2024-02-28T05:27:10;32.13;;;14.57;;
27209;SDS011;14721;42.668;23.386;2024-02-28T05:29:36;36.23;;;15.03;;
27209;SDS011;14721;42.668;23.386;2024-02-28T05:32:01;48.10;;;22.30;;
27209;SDS011;14721;42.668;23.386;2024-02-28T05:34:27;37.90;;;14.97;;
27209;SDS011;14721;42.668;23.386;2024-02-28T05:36:52;36.30;;;15.83;;
27209;SDS011;14721;42.668;23.386;2024-02-28T05:39:18;38.63;;;16.17;;
27209;SDS011;14721;42.668;23.386;2024-02-28T05:41:43;39.27;;;16.43;;
27209;SDS011;14721;42.668;23.386;2024-02-28T05:44:09;42.27;;;15.03;;
27209;SDS011;14721;42.668;23.386;2024-02-28T05:46:34;37.13;;;15.27;;
27209;SDS011;14721;42.668;23.386;2024-02-28T05:49:01;43.50;;;15.80;;
27209;SDS011;14721;42.668;23.386;2024-02-28T05:51:27;37.57;;;16.03;;
27209;SDS011;14721;42.668;23.386;2024-02-28T05:53:52;34.10;;;15.37;;
27209;SDS011;14721;42.668;23.386;2024-02-28T05:56:18;34.77;;;15.50;;
27209;SDS011;14721;42.668;23.386;2024-02-28T05:58:45;32.20;;;14.47;;
27209;SDS011;14721;42.668;23.386;2024-02-28T06:01:11;37.17;;;16.07;;
27209;SDS011;14721;42.668;23.386;2024-02-28T06:03:38;35.70;;;15.70;;
27209;SDS011;14721;42.668;23.386;2024-02-28T06:06:03;58.73;;;26.33;;
27209;SDS011;14721;42.668;23.386;2024-02-28T06:08:31;42.63;;;16.13;;
27209;SDS011;14721;42.668;23.386;2024-02-28T06:11:00;29.03;;;14.70;;
27209;SDS011;14721;42.668;23.386;2024-02-28T06:13:27;29.47;;;14.50;;
27209;SDS011;14721;42.668;23.386;2024-02-28T06:15:53;37.43;;;15.63;;
27209;SDS011;14721;42.668;23.386;2024-02-28T06:18:18;31.70;;;15.53;;
27209;SDS011;14721;42.668;23.386;2024-02-28T06:20:44;30.97;;;14.90;;
27209;SDS011;14721;42.668;23.386;2024-02-28T06:23:09;35.50;;;14.73;;
27209;SDS011;14721;42.668;23.386;2024-02-28T06:25:35;32.53;;;15.17;;
27209;SDS011;14721;42.668;23.386;2024-02-28T06:28:01;33.17;;;15.40;;
27209;SDS011;14721;42.668;23.386;2024-02-28T06:30:28;30.87;;;14.43;;
27209;SDS011;14721;42.668;23.386;2024-02-28T06:32:53;31.70;;;14.83;;
27209;SDS011;14721;42.668;23.386;2024-02-28T06:35:19;33.07;;;14.37;;
27209;SDS011;14721;42.668;23.386;2024-02-28T06:37:44;31.73;;;13.27;;
27209;SDS011;14721;42.668;23.386;2024-02-28T06:40:15;25.50;;;12.98;;
27209;SDS011;14721;42.668;23.386;2024-02-28T06:42:40;23.77;;;12.68;;
27209;SDS011;14721;42.668;23.386;2024-02-28T06:45:06;24.08;;;12.25;;
27209;SDS011;14721;42.668;23.386;2024-02-28T06:47:33;23.88;;;11.73;;
27209;SDS011;14721;42.668;23.386;2024-02-28T06:50:01;19.00;;;11.38;;
27209;SDS011;14721;42.668;23.386;2024-02-28T06:52:27;25.83;;;12.40;;
27209;SDS011;14721;42.668;23.386;2024-02-28T06:54:53;22.60;;;12.45;;
27209;SDS011;14721;42.668;23.386;2024-02-28T06:57:18;24.42;;;11.88;;
27209;SDS011;14721;42.668;23.386;2024-02-28T06:59:44;23.92;;;12.10;;
27209;SDS011;14721;42.668;23.386;2024-02-28T07:02:10;29.15;;;13.77;;
27209;SDS011;14721;42.668;23.386;2024-02-28T07:04:36;22.98;;;12.85;;
27209;SDS011;14721;42.668;23.386;2024-02-28T07:07:03;22.50;;;12.57;;
27209;SDS011;14721;42.668;23.386;2024-02-28T07:09:29;27.13;;;12.65;;
27209;SDS011;14721;42.668;23.386;2024-02-28T07:11:57;27.23;;;12.15;;
27209;SDS011;14721;42.668;23.386;2024-02-28T07:14:23;28.50;;;12.57;;
27209;SDS011;14721;42.668;23.386;2024-02-28T07:16:49;25.08;;;12.52;;
27209;SDS011;14721;42.668;23.386;2024-02-28T07:19:16;28.63;;;12.93;;
27209;SDS011;14721;42.668;23.386;2024-02-28T07:21:42;26.05;;;14.48;;
27209;SDS011;14721;42.668;23.386;2024-02-28T07:24:08;26.15;;;13.40;;
27209;SDS011;14721;42.668;23.386;2024-02-28T07:26:34;26.52;;;13.02;;
27209;SDS011;14721;42.668;23.386;2024-02-28T07:28:59;29.15;;;12.95;;
27209;SDS011;14721;42.668;23.386;2024-02-28T07:31:25;33.35;;;13.98;;
27209;SDS011;14721;42.668;23.386;2024-02-28T07:33:53;27.77;;;12.63;;
27209;SDS011;14721;42.668;23.386;2024-02-28T07:36:19;27.15;;;13.60;;
27209;SDS011;14721;42.668;23.386;2024-02-28T07:38:45;30.83;;;14.40;;
27209;SDS011;14721;42.668;23.386;2024-02-28T07:41:10;27.42;;;13.05;;
27209;SDS011;14721;42.668;23.386;2024-02-28T07:43:36;34.33;;;13.75;;
27209;SDS011;14721;42.668;23.386;2024-02-28T07:46:07;28.30;;;14.55;;
27209;SDS011;14721;42.668;23.386;2024-02-28T07:48:34;29.13;;;13.85;;
27209;SDS011;14721;42.668;23.386;2024-02-28T07:51:00;30.08;;;13.82;;
27209;SDS011;14721;42.668;23.386;2024-02-28T07:53:26;30.48;;;13.30;;
27209;SDS011;14721;42.668;23.386;2024-02-28T07:55:51;31.42;;;14.90;;
27209;SDS011;14721;42.668;23.386;2024-02-28T07:58:17;29.63;;;14.32;;
27209;SDS011;14721;42.668;23.386;2024-02-28T08:00:42;23.33;;;13.40;;
27209;SDS011;14721;42.668;23.386;2024-02-28T08:03:09;30.98;;;14.18;;
27209;SDS011;14721;42.668;23.386;2024-02-28T08:05:34;28.58;;;14.88;;
27209;SDS011;14721;42.668;23.386;2024-02-28T08:08:06;27.67;;;14.02;;
27209;SDS011;14721;42.668;23.386;2024-02-28T08:10:32;26.10;;;13.68;;
27209;SDS011;14721;42.668;23.386;2024-02-28T08:12:58;28.13;;;13.93;;
27209;SDS011;14721;42.668;23.386;2024-02-28T08:15:24;25.40;;;13.55;;
27209;SDS011;14721;42.668;23.386;2024-02-28T08:17:49;25.75;;;12.20;;
27209;SDS011;14721;42.668;23.386;2024-02-28T08:20:15;28.63;;;13.75;;
27209;SDS011;14721;42.668;23.386;2024-02-28T08:22:40;28.98;;;14.35;;
27209;SDS011;14721;42.668;23.386;2024-02-28T08:25:06;27.02;;;14.77;;
27209;SDS011;14721;42.668;23.386;2024-02-28T08:27:32;25.65;;;13.50;;
27209;SDS011;14721;42.668;23.386;2024-02-28T08:29:59;26.90;;;15.27;;
27209;SDS011;14721;42.668;23.386;2024-02-28T08:32:25;25.88;;;12.80;;
27209;SDS011;14721;42.668;23.386;2024-02-28T08:34:51;27.05;;;12.63;;
27209;SDS011;14721;42.668;23.386;2024-02-28T08:37:18;24.58;;;13.10;;
27209;SDS011;14721;42.668;23.386;2024-02-28T08:39:44;32.15;;;13.85;;
27209;SDS011;14721;42.668;23.386;2024-02-28T08:42:09;27.52;;;13.25;;
27209;SDS011;14721;42.668;23.386;2024-02-28T08:44:35;25.75;;;13.07;;
27209;SDS011;14721;42.668;23.386;2024-02-28T08:47:00;27.50;;;13.15;;
27209;SDS011;14721;42.668;23.386;2024-02-28T08:49:26;21.45;;;12.63;;
27209;SDS011;14721;42.668;23.386;2024-02-28T08:51:51;22.67;;;11.48;;
27209;SDS011;14721;42.668;23.386;2024-02-28T08:54:17;23.95;;;12.45;;
27209;SDS011;14721;42.668;23.386;2024-02-28T08:56:44;25.58;;;12.93;;
27209;SDS011;14721;42.668;23.386;2024-02-28T08:59:09;22.77;;;11.48;;
27209;SDS011;14721;42.668;23.386;2024-02-28T09:01:34;22.33;;;11.32;;
27209;SDS011;14721;42.668;23.386;2024-02-28T09:04:01;23.88;;;11.43;;
27209;SDS011;14721;42.668;23.386;2024-02-28T09:06:27;21.90;;;10.68;;
27209;SDS011;14721;42.668;23.386;2024-02-28T09:08:53;23.67;;;10.32;;
27209;SDS011;14721;42.668;23.386;2024-02-28T09:11:18;15.38;;;9.85;;
27209;SDS011;14721;42.668;23.386;2024-02-28T09:13:43;20.85;;;10.15;;
27209;SDS011;14721;42.668;23.386;2024-02-28T09:16:09;25.17;;;11.02;;
27209;SDS011;14721;42.668;23.386;2024-02-28T09:18:35;23.45;;;10.32;;
27209;SDS011;14721;42.668;23.386;2024-02-28T09:21:00;22.73;;;11.60;;
27209;SDS011;14721;42.668;23.386;2024-02-28T09:23:26;28.38;;;12.25;;
27209;SDS011;14721;42.668;23.386;2024-02-28T09:25:51;26.02;;;11.32;;
27209;SDS011;14721;42.668;23.386;2024-02-28T09:28:17;25.33;;;11.68;;
27209;SDS011;14721;42.668;23.386;2024-02-28T09:30:42;26.25;;;11.75;;
27209;SDS011;14721;42.668;23.386;2024-02-28T09:33:08;23.52;;;10.02;;
27209;SDS011;14721;42.668;23.386;2024-02-28T09:35:34;22.00;;;11.02;;
27209;SDS011;14721;42.668;23.386;2024-02-28T09:38:01;25.17;;;12.23;;
27209;SDS011;14721;42.668;23.386;2024-02-28T09:40:27;20.30;;;12.07;;
27209;SDS011;14721;42.668;23.386;2024-02-28T09:42:53;22.50;;;11.05;;
27209;SDS011;14721;42.668;23.386;2024-02-28T09:45:26;25.88;;;10.73;;
27209;SDS011;14721;42.668;23.386;2024-02-28T09:47:52;23.92;;;10.90;;
27209;SDS011;14721;42.668;23.386;2024-02-28T09:50:18;19.63;;;9.45;;
27209;SDS011;14721;42.668;23.386;2024-02-28T09:52:44;22.52;;;10.68;;
27209;SDS011;14721;42.668;23.386;2024-02-28T09:55:10;15.70;;;9.73;;
27209;SDS011;14721;42.668;23.386;2024-02-28T09:57:36;24.65;;;10.10;;
27209;SDS011;14721;42.668;23.386;2024-02-28T10:00:03;19.92;;;10.15;;
27209;SDS011;14721;42.668;23.386;2024-02-28T10:02:29;23.17;;;10.45;;
27209;SDS011;14721;42.668;23.386;2024-02-28T10:04:56;24.00;;;11.80;;
27209;SDS011;14721;42.668;23.386;2024-02-28T10:07:25;26.17;;;12.18;;
27209;SDS011;14721;42.668;23.386;2024-02-28T10:09:51;21.98;;;10.20;;
27209;SDS011;14721;42.668;23.386;2024-02-28T10:12:16;33.97;;;11.50;;
27209;SDS011;14721;42.668;23.386;2024-02-28T10:14:43;21.00;;;9.60;;
27209;SDS011;14721;42.668;23.386;2024-02-28T10:17:09;21.58;;;9.65;;
27209;SDS011;14721;42.668;23.386;2024-02-28T10:19:34;20.30;;;10.52;;
27209;SDS011;14721;42.668;23.386;2024-02-28T10:22:00;20.63;;;10.05;;
27209;SDS011;14721;42.668;23.386;2024-02-28T10:24:25;22.17;;;10.43;;
27209;SDS011;14721;42.668;23.386;2024-02-28T10:26:51;19.13;;;10.10;;
27209;SDS011;14721;42.668;23.386;2024-02-28T10:29:23;20.73;;;10.48;;
27209;SDS011;14721;42.668;23.386;2024-02-28T10:31:49;21.70;;;10.45;;
27209;SDS011;14721;42.668;23.386;2024-02-28T10:34:18;19.13;;;8.00;;
27209;SDS011;14721;42.668;23.386;2024-02-28T10:36:44;20.58;;;8.93;;
27209;SDS011;14721;42.668;23.386;2024-02-28T10:39:11;20.17;;;9.30;;
27209;SDS011;14721;42.668;23.386;2024-02-28T10:41:43;18.33;;;7.45;;
27209;SDS011;14721;42.668;23.386;2024-02-28T10:44:11;18.30;;;9.02;;
27209;SDS011;14721;42.668;23.386;2024-02-28T10:46:38;19.05;;;8.27;;
27209;SDS011;14721;42.668;23.386;2024-02-28T10:49:04;16.08;;;7.85;;
27209;SDS011;14721;42.668;23.386;2024-02-28T10:51:31;22.52;;;9.88;;
27209;SDS011;14721;42.668;23.386;2024-02-28T10:54:11;18.30;;;8.35;;
27209;SDS011;14721;42.668;23.386;2024-02-28T10:56:38;16.33;;;8.65;;
27209;SDS011;14721;42.668;23.386;2024-02-28T10:59:08;19.17;;;9.52;;
27209;SDS011;14721;42.668;23.386;2024-02-28T11:01:38;17.15;;;8.32;;
27209;SDS011;14721;42.668;23.386;2024-02-28T11:04:08;18.38;;;8.65;;
27209;SDS011;14721;42.668;23.386;2024-02-28T11:06:46;16.05;;;8.55;;
27209;SDS011;14721;42.668;23.386;2024-02-28T11:09:18;15.13;;;8.25;;
27209;SDS011;14721;42.668;23.386;2024-02-28T11:11:47;14.93;;;8.00;;
27209;SDS011;14721;42.668;23.386;2024-02-28T11:14:16;22.23;;;8.80;;
27209;SDS011;14721;42.668;23.386;2024-02-28T11:16:42;14.27;;;6.90;;
27209;SDS011;14721;42.668;23.386;2024-02-28T11:19:18;20.02;;;6.97;;
27209;SDS011;14721;42.668;23.386;2024-02-28T11:21:45;15.57;;;7.22;;
27209;SDS011;14721;42.668;23.386;2024-02-28T11:24:22;15.32;;;7.97;;
27209;SDS011;14721;42.668;23.386;2024-02-28T11:26:49;15.63;;;7.72;;
27209;SDS011;14721;42.668;23.386;2024-02-28T11:29:16;17.05;;;7.28;;
27209;SDS011;14721;42.668;23.386;2024-02-28T11:31:41;17.13;;;7.03;;
27209;SDS011;14721;42.668;23.386;2024-02-28T11:34:08;14.65;;;7.10;;
27209;SDS011;14721;42.668;23.386;2024-02-28T11:36:33;13.55;;;7.63;;
27209;SDS011;14721;42.668;23.386;2024-02-28T11:38:59;15.55;;;8.70;;
27209;SDS011;14721;42.668;23.386;2024-02-28T11:41:28;12.13;;;6.30;;
27209;SDS011;14721;42.668;23.386;2024-02-28T11:43:54;11.80;;;6.60;;
27209;SDS011;14721;42.668;23.386;2024-02-28T11:46:19;15.10;;;5.63;;
27209;SDS011;14721;42.668;23.386;2024-02-28T11:48:45;13.98;;;6.07;;
27209;SDS011;14721;42.668;23.386;2024-02-28T11:51:11;13.57;;;6.38;;
27209;SDS011;14721;42.668;23.386;2024-02-28T11:53:36;12.63;;;6.03;;
27209;SDS011;14721;42.668;23.386;2024-02-28T11:56:02;14.95;;;6.05;;
27209;SDS011;14721;42.668;23.386;2024-02-28T11:58:28;13.02;;;7.07;;
27209;SDS011;14721;42.668;23.386;2024-02-28T12:00:54;14.93;;;7.45;;
27209;SDS011;14721;42.668;23.386;2024-02-28T12:03:23;12.63;;;6.60;;
27209;SDS011;14721;42.668;23.386;2024-02-28T12:05:50;12.90;;;6.63;;
27209;SDS011;14721;42.668;23.386;2024-02-28T12:08:18;19.67;;;7.70;;
27209;SDS011;14721;42.668;23.386;2024-02-28T12:10:48;15.55;;;7.18;;
27209;SDS011;14721;42.668;23.386;2024-02-28T12:13:19;13.30;;;6.78;;
27209;SDS011;14721;42.668;23.386;2024-02-28T12:15:45;12.75;;;6.72;;
27209;SDS011;14721;42.668;23.386;2024-02-28T12:18:12;14.02;;;6.40;;
27209;SDS011;14721;42.668;23.386;2024-02-28T12:20:40;13.15;;;6.28;;
27209;SDS011;14721;42.668;23.386;2024-02-28T12:23:05;12.95;;;5.60;;
27209;SDS011;14721;42.668;23.386;2024-02-28T12:25:33;9.38;;;5.43;;
27209;SDS011;14721;42.668;23.386;2024-02-28T12:27:59;11.38;;;5.60;;
27209;SDS011;14721;42.668;23.386;2024-02-28T12:30:26;9.25;;;4.85;;
27209;SDS011;14721;42.668;23.386;2024-02-28T12:32:51;10.45;;;5.38;;
27209;SDS011;14721;42.668;23.386;2024-02-28T12:35:17;13.80;;;5.70;;
27209;SDS011;14721;42.668;23.386;2024-02-28T12:37:42;11.65;;;4.82;;
27209;SDS011;14721;42.668;23.386;2024-02-28T12:40:08;10.80;;;5.30;;
27209;SDS011;14721;42.668;23.386;2024-02-28T12:42:34;14.48;;;4.65;;
27209;SDS011;14721;42.668;23.386;2024-02-28T12:45:00;14.48;;;5.00;;
27209;SDS011;14721;42.668;23.386;2024-02-28T12:47:25;13.35;;;4.45;;
27209;SDS011;14721;42.668;23.386;2024-02-28T12:49:51;8.45;;;4.07;;
27209;SDS011;14721;42.668;23.386;2024-02-28T12:52:17;11.57;;;5.07;;
27209;SDS011;14721;42.668;23.386;2024-02-28T12:54:43;11.38;;;4.72;;
27209;SDS011;14721;42.668;23.386;2024-02-28T12:57:08;11.07;;;4.65;;
27209;SDS011;14721;42.668;23.386;2024-02-28T12:59:34;10.63;;;4.28;;
27209;SDS011;14721;42.668;23.386;2024-02-28T13:02:00;8.27;;;4.03;;
27209;SDS011;14721;42.668;23.386;2024-02-28T13:04:25;7.95;;;4.43;;
27209;SDS011;14721;42.668;23.386;2024-02-28T13:06:53;13.00;;;5.00;;
27209;SDS011;14721;42.668;23.386;2024-02-28T13:09:18;8.55;;;5.00;;
27209;SDS011;14721;42.668;23.386;2024-02-28T13:11:44;7.47;;;3.85;;
27209;SDS011;14721;42.668;23.386;2024-02-28T13:14:10;7.45;;;4.03;;
27209;SDS011;14721;42.668;23.386;2024-02-28T13:16:35;10.68;;;3.88;;
27209;SDS011;14721;42.668;23.386;2024-02-28T13:19:02;8.18;;;4.30;;
27209;SDS011;14721;42.668;23.386;2024-02-28T13:21:29;9.77;;;4.45;;
27209;SDS011;14721;42.668;23.386;2024-02-28T13:23:56;6.78;;;3.75;;
27209;SDS011;14721;42.668;23.386;2024-02-28T13:26:22;8.82;;;4.18;;
27209;SDS011;14721;42.668;23.386;2024-02-28T13:28:47;9.18;;;3.83;;
27209;SDS011;14721;42.668;23.386;2024-02-28T13:31:13;8.13;;;3.58;;
27209;SDS011;14721;42.668;23.386;2024-02-28T13:33:39;9.57;;;4.40;;
27209;SDS011;14721;42.668;23.386;2024-02-28T13:36:06;9.82;;;4.22;;
27209;SDS011;14721;42.668;23.386;2024-02-28T13:38:34;6.00;;;3.30;;
27209;SDS011;14721;42.668;23.386;2024-02-28T13:41:00;9.38;;;3.45;;
27209;SDS011;14721;42.668;23.386;2024-02-28T13:43:25;10.77;;;3.63;;
27209;SDS011;14721;42.668;23.386;2024-02-28T13:45:51;7.35;;;3.38;;
27209;SDS011;14721;42.668;23.386;2024-02-28T13:48:20;10.13;;;3.63;;
27209;SDS011;14721;42.668;23.386;2024-02-28T13:50:47;7.68;;;4.13;;
27209;SDS011;14721;42.668;23.386;2024-02-28T13:53:14;7.72;;;2.90;;
27209;SDS011;14721;42.668;23.386;2024-02-28T13:55:41;8.15;;;3.17;;
27209;SDS011;14721;42.668;23.386;2024-02-28T13:58:08;8.32;;;3.65;;
27209;SDS011;14721;42.668;23.386;2024-02-28T14:00:35;10.43;;;3.72;;
27209;SDS011;14721;42.668;23.386;2024-02-28T14:03:01;13.32;;;3.28;;
27209;SDS011;14721;42.668;23.386;2024-02-28T14:05:28;7.95;;;3.47;;
27209;SDS011;14721;42.668;23.386;2024-02-28T14:07:54;6.18;;;3.22;;
27209;SDS011;14721;42.668;23.386;2024-02-28T14:10:20;8.68;;;3.20;;
27209;SDS011;14721;42.668;23.386;2024-02-28T14:12:47;6.05;;;3.35;;
27209;SDS011;14721;42.668;23.386;2024-02-28T14:15:13;7.35;;;3.30;;
27209;SDS011;14721;42.668;23.386;2024-02-28T14:17:40;11.07;;;3.78;;